Time;durP1;ratioP1;P1;durP2;ratioP2;P2;SDS_P1;SDS_P2;PMS_P1;PMS_P2;Temp;Humidity;BMP_temperature;BMP_pressure;BME280_temperature;BME280_humidity;BME280_pressure;Samples;Min_cycle;Max_cycle;Signal;HPM_P1;HPM_P2
2021/12/02 00:02:10;;;;;;;;;;;;;;;22.18;39.71;100506.78;7284610;19;153234;-52
2021/12/02 00:04:39;;;;;;;;;;;;;;;22.15;39.35;100505.47;7280529;19;152744;-52
2021/12/02 00:07:06;;;;;;;;;;;;;;;22.14;39.62;100498.19;7277252;19;153832;-52
2021/12/02 00:09:34;;;;;;;;;;;;;;;22.14;39.47;100503.81;7281619;19;152431;-52
2021/12/02 00:12:01;;;;;;;;;;;;;;;22.12;39.49;100500.47;7280684;19;153336;-52
2021/12/02 00:14:29;;;;;;;;;;;;;;;22.11;39.52;100507.28;7279740;19;153975;-52
2021/12/02 00:22:12;;;;;;;;;;;;;;;22.04;39.79;100520.16;7278337;19;152775;-53
2021/12/02 00:24:39;;;;;;;;;;;;;;;22.03;39.97;100529.78;7288340;19;152201;-52
2021/12/02 00:27:08;;;;;;;;;;;;;;;22.00;39.96;100524.81;7277714;19;153252;-52
2021/12/02 00:29:35;;;;;;;;;;;;;;;21.99;39.56;100545.66;7280867;19;152059;-52
2021/12/02 00:32:04;;;;;;;;;;;;;;;21.95;40.16;100545.47;7280828;19;153656;-51
2021/12/02 00:34:32;;;;;;;;;;;;;;;21.93;39.97;100544.16;7278497;19;153910;-52
2021/12/02 00:37:00;;;;;;;;;;;;;;;21.88;39.80;100544.28;7280257;19;151823;-52
2021/12/02 00:39:27;;;;;;;;;;;;;;;21.84;40.21;100548.91;7278191;19;152986;-52
2021/12/02 00:41:54;;;;;;;;;;;;;;;21.81;40.35;100544.75;7279416;19;153569;-52
2021/12/02 00:44:21;;;;;;;;;;;;;;;21.77;40.05;100554.16;7280395;19;151991;-53
2021/12/02 00:46:50;;;;;;;;;;;;;;;21.73;40.33;100552.03;7287417;19;154069;-50
2021/12/02 00:49:18;;;;;;;;;;;;;;;21.69;40.12;100545.41;7287821;19;152161;-52
2021/12/02 00:51:46;;;;;;;;;;;;;;;21.66;40.19;100553.66;7283921;19;153267;-51
2021/12/02 00:54:13;;;;;;;;;;;;;;;21.61;40.77;100545.38;7283918;19;153761;-52
2021/12/02 00:56:40;;;;;;;;;;;;;;;21.61;40.22;100549.00;7286665;19;151723;-52
2021/12/02 00:59:11;;;;;;;;;;;;;;;21.56;41.04;100546.34;7286214;19;151781;-52
2021/12/02 01:01:38;;;;;;;;;;;;;;;21.53;41.04;100560.22;7282264;19;153994;-52
2021/12/02 01:04:06;;;;;;;;;;;;;;;21.52;41.31;100550.13;7284239;19;151902;-52
2021/12/02 01:06:33;;;;;;;;;;;;;;;21.49;41.38;100547.94;7284864;19;152621;-52
2021/12/02 01:09:00;;;;;;;;;;;;;;;21.49;41.03;100545.13;7291721;19;152498;-51
2021/12/02 01:11:28;;;;;;;;;;;;;;;21.44;41.28;100548.91;7286930;19;152599;-52
2021/12/02 01:13:55;;;;;;;;;;;;;;;21.44;41.26;100551.72;7284597;19;154003;-52
2021/12/02 01:16:22;;;;;;;;;;;;;;;21.42;41.17;100548.44;7285261;19;151821;-51
2021/12/02 01:18:49;;;;;;;;;;;;;;;21.39;41.60;100556.69;7285201;19;152840;-51
2021/12/02 01:21:19;;;;;;;;;;;;;;;21.36;41.14;100557.31;7284505;19;152253;-52
2021/12/02 01:23:49;;;;;;;;;;;;;;;21.33;41.17;100563.59;7285608;19;152082;-52
2021/12/02 01:26:17;;;;;;;;;;;;;;;21.30;41.69;100563.06;7285892;19;152763;-51
2021/12/02 01:28:44;;;;;;;;;;;;;;;21.24;41.53;100563.56;7292179;19;153293;-52
2021/12/02 01:31:13;;;;;;;;;;;;;;;21.20;41.44;100562.53;7286679;19;153211;-51
2021/12/02 01:33:41;;;;;;;;;;;;;;;21.17;41.84;100555.56;7285089;19;154336;-53
2021/12/02 01:36:09;;;;;;;;;;;;;;;21.12;41.66;100558.47;7285974;19;152182;-51
2021/12/02 01:38:36;;;;;;;;;;;;;;;21.08;41.37;100563.09;7286168;19;153150;-52
2021/12/02 01:41:05;;;;;;;;;;;;;;;21.03;41.85;100563.22;7285520;19;153273;-52
2021/12/02 01:43:42;;;;;;;;;;;;;;;21.00;41.89;100574.28;7285735;19;151980;-52
2021/12/02 01:46:09;;;;;;;;;;;;;;;20.95;41.79;100583.66;7284090;19;152905;-52
2021/12/02 01:48:39;;;;;;;;;;;;;;;20.91;42.14;100577.03;7284834;19;154222;-51
2021/12/02 01:51:07;;;;;;;;;;;;;;;20.88;42.43;100583.31;7293896;19;151557;-51
2021/12/02 01:53:35;;;;;;;;;;;;;;;20.84;42.65;100587.91;7283785;19;153047;-51
2021/12/02 01:56:10;;;;;;;;;;;;;;;20.80;42.58;100584.88;7285841;19;151959;-51
2021/12/02 01:58:41;;;;;;;;;;;;;;;20.77;42.75;100584.69;7284591;19;153454;-52
2021/12/02 02:01:12;;;;;;;;;;;;;;;20.74;42.73;100593.75;7283677;19;154081;-51
2021/12/02 02:03:40;;;;;;;;;;;;;;;20.69;42.72;100588.28;7280930;19;151970;-52
2021/12/02 02:06:08;;;;;;;;;;;;;;;20.67;43.19;100594.19;7283182;19;153481;-53
2021/12/02 02:08:36;;;;;;;;;;;;;;;20.65;43.01;100601.28;7284535;19;153284;-52
2021/12/02 02:11:03;;;;;;;;;;;;;;;20.64;43.28;100592.03;7286097;19;151849;-52
2021/12/02 02:13:30;;;;;;;;;;;;;;;20.58;43.49;100601.72;7290989;19;153321;-52
2021/12/02 02:15:56;;;;;;;;;;;;;;;20.55;43.74;100596.75;7283823;19;151780;-52
2021/12/02 02:18:24;;;;;;;;;;;;;;;20.53;43.21;100599.06;7283383;19;153910;-52
2021/12/02 02:23:20;;;;;;;;;;;;;;;20.48;43.85;100603.94;7284729;19;152016;-51
2021/12/02 02:25:48;;;;;;;;;;;;;;;20.45;43.60;100613.81;7285550;19;153501;-52
2021/12/02 02:28:15;;;;;;;;;;;;;;;20.41;43.65;100608.00;7280560;19;154226;-51
2021/12/02 02:30:42;;;;;;;;;;;;;;;20.39;43.46;100620.72;7284411;19;151847;-51
2021/12/02 02:33:11;;;;;;;;;;;;;;;20.37;43.77;100611.75;7284323;19;152743;-53
2021/12/02 02:35:38;;;;;;;;;;;;;;;20.33;43.47;100616.34;7288888;19;153346;-51
2021/12/02 02:38:05;;;;;;;;;;;;;;;20.32;43.37;100626.75;7283665;19;152964;-51
2021/12/02 02:40:33;;;;;;;;;;;;;;;20.27;43.70;100632.44;7282802;19;153819;-51
2021/12/02 02:43:07;;;;;;;;;;;;;;;20.25;43.73;100628.28;7283787;19;151834;-51
2021/12/02 02:45:34;;;;;;;;;;;;;;;20.22;43.62;100631.69;7283250;19;152259;-52
2021/12/02 02:48:01;;;;;;;;;;;;;;;20.22;43.60;100629.72;7280550;19;154148;-52
2021/12/02 02:50:30;;;;;;;;;;;;;;;20.18;43.92;100622.25;7284768;19;152563;-52
2021/12/02 02:53:04;;;;;;;;;;;;;;;20.13;43.83;100617.59;7283147;19;153377;-51
2021/12/02 02:55:34;;;;;;;;;;;;;;;20.13;43.68;100616.75;7282923;19;153547;-51
2021/12/02 03:01:18;;;;;;;;;;;;;;;20.06;44.05;100625.59;7279353;19;152262;-51
2021/12/02 03:04:01;;;;;;;;;;;;;;;20.03;43.80;100625.41;7280509;19;152081;-51
2021/12/02 03:09:49;;;;;;;;;;;;;;;19.98;44.03;100632.78;7281153;19;153820;-51
2021/12/02 03:11:57;;;;;;;;;;;;;;;19.95;44.09;100633.41;7282184;19;152025;-51
2021/12/02 03:14:49;;;;;;;;;;;;;;;19.92;43.91;100622.81;7282394;19;152031;-51
2021/12/02 03:17:16;;;;;;;;;;;;;;;19.90;44.12;100647.53;7281741;19;153981;-51
2021/12/02 03:19:44;;;;;;;;;;;;;;;19.90;44.21;100641.91;7282807;19;151873;-51
2021/12/02 03:22:12;;;;;;;;;;;;;;;19.86;44.29;100634.44;7289843;19;152447;-52
2021/12/02 03:24:39;;;;;;;;;;;;;;;19.83;44.04;100652.72;7283379;19;152443;-51
2021/12/02 03:27:06;;;;;;;;;;;;;;;19.81;43.98;100645.75;7282407;19;152376;-51
2021/12/02 03:29:33;;;;;;;;;;;;;;;19.78;44.10;100633.19;7281744;19;152527;-51
2021/12/02 03:31:59;;;;;;;;;;;;;;;19.75;44.39;100633.84;7282575;19;151611;-51
2021/12/02 03:34:26;;;;;;;;;;;;;;;19.74;44.35;100628.53;7282331;19;153679;-50
2021/12/02 03:36:53;;;;;;;;;;;;;;;19.72;44.35;100640.03;7280907;19;153276;-51
2021/12/02 03:39:20;;;;;;;;;;;;;;;19.72;44.21;100633.59;7281347;19;152429;-51
2021/12/02 03:41:53;;;;;;;;;;;;;;;19.69;44.53;100626.66;7289291;19;152592;-52
2021/12/02 03:44:24;;;;;;;;;;;;;;;19.66;44.28;100627.28;7282824;19;151875;-51
2021/12/02 03:46:52;;;;;;;;;;;;;;;19.65;44.50;100636.81;7281583;19;152771;-52
2021/12/02 03:49:19;;;;;;;;;;;;;;;19.65;44.33;100641.59;7281199;19;154295;-51
2021/12/02 03:51:46;;;;;;;;;;;;;;;19.59;44.19;100632.44;7282182;19;151806;-50
2021/12/02 03:54:13;;;;;;;;;;;;;;;19.60;44.23;100638.88;7282052;19;151753;-51
2021/12/02 03:56:40;;;;;;;;;;;;;;;19.59;44.16;100640.84;7281360;19;153871;-51
2021/12/02 03:59:07;;;;;;;;;;;;;;;19.55;44.60;100639.81;7282475;19;151945;-51
2021/12/02 04:01:33;;;;;;;;;;;;;;;19.55;44.68;100645.41;7279818;19;153208;-51
2021/12/02 04:04:00;;;;;;;;;;;;;;;19.51;44.41;100650.81;7282386;19;153347;-51
2021/12/02 04:06:27;;;;;;;;;;;;;;;19.48;44.76;100653.41;7277846;19;152798;-51
2021/12/02 04:09:05;;;;;;;;;;;;;;;19.46;44.30;100658.47;7277697;19;153785;-51
2021/12/02 04:11:40;;;;;;;;;;;;;;;19.44;44.52;100664.38;7282166;19;151799;-51
2021/12/02 04:14:14;;;;;;;;;;;;;;;19.41;44.61;100653.78;7281570;19;152703;-52
2021/12/02 04:16:51;;;;;;;;;;;;;;;19.39;44.55;100652.44;7280128;19;154876;-51
2021/12/02 04:19:18;;;;;;;;;;;;;;;19.37;44.78;100654.69;7278037;19;152082;-52
2021/12/02 04:21:45;;;;;;;;;;;;;;;19.34;44.54;100656.16;7286575;19;152457;-51
2021/12/02 04:24:12;;;;;;;;;;;;;;;19.30;44.89;100649.50;7287438;19;153314;-51
2021/12/02 04:26:40;;;;;;;;;;;;;;;19.29;44.66;100647.84;7295517;19;151740;-51
2021/12/02 04:29:07;;;;;;;;;;;;;;;19.26;44.74;100654.03;7284082;19;154754;-52
2021/12/02 04:31:33;;;;;;;;;;;;;;;19.25;45.03;100640.34;7288250;19;152021;-52
2021/12/02 04:34:00;;;;;;;;;;;;;;;19.21;44.85;100648.56;7287673;19;152241;-52
2021/12/02 04:36:27;;;;;;;;;;;;;;;19.22;45.00;100638.16;7285783;19;152641;-51
2021/12/02 04:38:54;;;;;;;;;;;;;;;19.23;44.58;100634.22;7286312;19;152172;-51
2021/12/02 04:41:20;;;;;;;;;;;;;;;19.29;44.56;100630.19;7287985;19;153273;-51
2021/12/02 04:43:47;;;;;;;;;;;;;;;19.33;45.09;100634.03;7285950;19;154375;-51
2021/12/02 04:46:14;;;;;;;;;;;;;;;19.38;45.27;100622.75;7287705;19;152156;-52
2021/12/02 04:48:41;;;;;;;;;;;;;;;19.43;45.28;100628.25;7289618;19;153561;-51
2021/12/02 04:51:08;;;;;;;;;;;;;;;19.45;45.57;100629.63;7286880;19;151760;-51
2021/12/02 04:53:35;;;;;;;;;;;;;;;19.50;45.44;100629.53;7285840;19;153753;-51
2021/12/02 04:56:01;;;;;;;;;;;;;;;19.56;46.01;100624.66;7286077;19;153217;-51
2021/12/02 04:58:29;;;;;;;;;;;;;;;19.62;46.08;100617.84;7287646;19;151894;-51
2021/12/02 05:00:55;;;;;;;;;;;;;;;19.69;45.77;100626.66;7287254;19;153347;-51
2021/12/02 05:03:23;;;;;;;;;;;;;;;19.76;45.61;100631.84;7285708;19;152984;-51
2021/12/02 05:05:51;;;;;;;;;;;;;;;19.81;45.88;100624.16;7283689;19;152220;-51
2021/12/02 05:08:17;;;;;;;;;;;;;;;19.87;45.68;100634.13;7285175;19;153776;-52
2021/12/02 05:10:44;;;;;;;;;;;;;;;19.93;45.34;100635.69;7292603;19;153183;-51
2021/12/02 05:13:11;;;;;;;;;;;;;;;20.01;45.42;100650.94;7286371;19;153367;-51
2021/12/02 05:15:38;;;;;;;;;;;;;;;20.08;45.55;100647.75;7285275;19;153604;-51
2021/12/02 05:18:04;;;;;;;;;;;;;;;20.13;45.22;100648.44;7285567;19;151727;-51
2021/12/02 05:20:31;;;;;;;;;;;;;;;20.20;44.90;100648.03;7286730;19;153307;-51
2021/12/02 05:22:58;;;;;;;;;;;;;;;20.25;44.78;100643.16;7282656;19;154062;-51
2021/12/02 05:25:25;;;;;;;;;;;;;;;20.32;45.10;100649.19;7284738;19;152011;-51
2021/12/02 05:27:51;;;;;;;;;;;;;;;20.38;44.76;100661.97;7285668;19;152569;-51
2021/12/02 05:30:18;;;;;;;;;;;;;;;20.43;44.86;100655.41;7285486;19;153504;-52
2021/12/02 05:32:45;;;;;;;;;;;;;;;20.49;44.81;100654.13;7292550;19;151654;-51
2021/12/02 05:35:11;;;;;;;;;;;;;;;20.55;44.42;100663.28;7284479;19;154383;-51
2021/12/02 05:37:38;;;;;;;;;;;;;;;20.59;44.07;100667.09;7285239;19;151907;-51
2021/12/02 05:40:21;;;;;;;;;;;;;;;20.65;44.10;100668.66;7286381;19;152676;-52
2021/12/02 05:43:06;;;;;;;;;;;;;;;20.71;44.11;100673.03;7284371;19;152540;-51
2021/12/02 05:45:32;;;;;;;;;;;;;;;20.75;43.90;100674.88;7285722;19;151482;-52
2021/12/02 05:47:59;;;;;;;;;;;;;;;20.80;43.74;100677.53;7284472;19;152088;-51
2021/12/02 05:50:26;;;;;;;;;;;;;;;20.85;43.66;100674.59;7285061;19;153412;-51
2021/12/02 05:52:52;;;;;;;;;;;;;;;20.88;43.65;100673.16;7292568;19;151600;-52
2021/12/02 05:55:19;;;;;;;;;;;;;;;20.94;43.58;100694.34;7284614;19;153931;-52
2021/12/02 05:57:46;;;;;;;;;;;;;;;20.99;42.89;100697.03;7284912;19;152142;-51
2021/12/02 06:00:14;;;;;;;;;;;;;;;21.03;43.29;100684.00;7285479;19;151918;-52
2021/12/02 06:02:41;;;;;;;;;;;;;;;21.08;43.17;100691.47;7284420;19;153229;-51
2021/12/02 06:05:08;;;;;;;;;;;;;;;21.12;42.91;100695.34;7282329;19;151921;-51
2021/12/02 06:07:35;;;;;;;;;;;;;;;21.16;43.06;100687.97;7281258;19;153300;-51
2021/12/02 06:10:02;;;;;;;;;;;;;;;21.20;42.84;100691.78;7280977;19;153244;-51
2021/12/02 06:12:29;;;;;;;;;;;;;;;21.23;42.50;100677.09;7284591;19;151707;-51
2021/12/02 06:14:56;;;;;;;;;;;;;;;21.27;42.68;100681.75;7291131;19;152694;-51
2021/12/02 06:17:23;;;;;;;;;;;;;;;21.30;42.52;100678.28;7285573;19;152284;-51
2021/12/02 06:19:49;;;;;;;;;;;;;;;21.35;42.72;100682.16;7283222;19;152863;-51
2021/12/02 06:22:16;;;;;;;;;;;;;;;21.39;42.61;100680.34;7282907;19;152260;-51
2021/12/02 06:24:44;;;;;;;;;;;;;;;21.42;42.39;100688.13;7284569;19;152418;-52
2021/12/02 06:27:11;;;;;;;;;;;;;;;21.45;42.09;100679.06;7283978;19;154143;-52
2021/12/02 06:29:41;;;;;;;;;;;;;;;21.49;42.10;100696.94;7279929;19;154131;-51
2021/12/02 06:32:09;;;;;;;;;;;;;;;21.51;42.26;100695.47;7284655;19;152117;-51
2021/12/02 06:34:36;;;;;;;;;;;;;;;21.56;42.93;100702.94;7284908;19;152568;-51
2021/12/02 06:37:03;;;;;;;;;;;;;;;21.59;42.60;100691.03;7289792;19;153260;-51
2021/12/02 06:39:29;;;;;;;;;;;;;;;21.61;42.39;100686.78;7281582;19;153314;-51
2021/12/02 06:41:56;;;;;;;;;;;;;;;21.66;42.55;100686.66;7283188;19;153424;-52
2021/12/02 06:44:23;;;;;;;;;;;;;;;21.68;42.27;100677.88;7281212;19;154005;-51
2021/12/02 06:46:50;;;;;;;;;;;;;;;21.71;41.91;100678.03;7283925;19;152330;-51
2021/12/02 06:49:16;;;;;;;;;;;;;;;21.74;42.09;100685.03;7280546;19;153305;-51
2021/12/02 06:51:43;;;;;;;;;;;;;;;21.77;41.77;100684.38;7284154;19;151821;-52
2021/12/02 06:54:10;;;;;;;;;;;;;;;21.80;41.99;100689.38;7283264;19;153452;-51
2021/12/02 06:56:49;;;;;;;;;;;;;;;21.83;41.72;100685.06;7283648;19;153393;-52
2021/12/02 06:59:16;;;;;;;;;;;;;;;21.84;41.76;100690.38;7290960;19;152158;-51
2021/12/02 07:01:43;;;;;;;;;;;;;;;21.88;42.24;100693.34;7282604;19;154254;-52
2021/12/02 07:04:11;;;;;;;;;;;;;;;21.91;41.62;100710.41;7283202;19;152014;-51
2021/12/02 07:06:38;;;;;;;;;;;;;;;21.93;41.41;100708.16;7280607;19;153350;-52
2021/12/02 07:09:06;;;;;;;;;;;;;;;21.95;41.33;100693.75;7278801;19;153828;-51
2021/12/02 07:11:33;;;;;;;;;;;;;;;21.97;41.35;100699.88;7283542;19;151934;-52
2021/12/02 07:14:04;;;;;;;;;;;;;;;21.98;41.31;100702.38;7283606;19;153291;-51
2021/12/02 07:16:32;;;;;;;;;;;;;;;22.02;41.23;100711.00;7282246;19;154579;-51
2021/12/02 07:19:02;;;;;;;;;;;;;;;22.03;41.37;100709.84;7282632;19;151823;-51
2021/12/02 07:21:30;;;;;;;;;;;;;;;22.07;41.59;100716.50;7290152;19;152706;-51
2021/12/02 07:23:57;;;;;;;;;;;;;;;22.09;40.83;100716.97;7282979;19;152519;-53
2021/12/02 07:26:24;;;;;;;;;;;;;;;22.09;40.42;100722.59;7282934;19;153234;-52
2021/12/02 07:28:51;;;;;;;;;;;;;;;22.12;40.10;100721.97;7280644;19;152951;-52
2021/12/02 07:31:19;;;;;;;;;;;;;;;22.13;39.91;100732.06;7280896;19;151898;-52
2021/12/02 07:33:50;;;;;;;;;;;;;;;22.12;39.38;100725.59;7280638;19;152975;-52
2021/12/02 07:36:17;;;;;;;;;;;;;;;22.15;39.59;100722.16;7281997;19;153360;-52
2021/12/02 07:38:44;;;;;;;;;;;;;;;22.20;39.21;100737.22;7279609;19;151758;-52
2021/12/02 07:41:11;;;;;;;;;;;;;;;21.67;34.04;100732.44;7283207;19;152560;-52
2021/12/02 07:43:39;;;;;;;;;;;;;;;21.70;35.88;100732.66;7285415;19;152060;-52
2021/12/02 07:46:06;;;;;;;;;;;;;;;21.84;37.45;100729.75;7282531;19;152705;-52
2021/12/02 07:48:34;;;;;;;;;;;;;;;21.45;33.68;100726.84;7280424;19;154008;-52
2021/12/02 07:51:17;;;;;;;;;;;;;;;21.54;34.67;100737.00;7282042;19;151857;-52
2021/12/02 07:53:45;;;;;;;;;;;;;;;21.59;35.42;100731.25;7282376;19;152627;-52
2021/12/02 07:56:14;;;;;;;;;;;;;;;21.61;35.68;100736.56;7280756;19;153330;-52
2021/12/02 07:58:43;;;;;;;;;;;;;;;21.62;35.64;100727.78;7282674;19;152156;-53
2021/12/02 08:01:12;;;;;;;;;;;;;;;21.61;35.52;100734.56;7282043;19;153040;-52
2021/12/02 08:03:44;;;;;;;;;;;;;;;21.63;35.64;100737.88;7288398;19;153211;-52
2021/12/02 08:06:11;;;;;;;;;;;;;;;21.62;35.86;100744.66;7280525;19;152286;-52
2021/12/02 08:08:39;;;;;;;;;;;;;;;21.63;35.65;100746.31;7278198;19;153082;-52
2021/12/02 08:11:06;;;;;;;;;;;;;;;21.64;36.04;100747.16;7278679;19;151917;-52
2021/12/02 08:13:33;;;;;;;;;;;;;;;21.64;35.63;100750.78;7278801;19;153888;-52
2021/12/02 08:16:01;;;;;;;;;;;;;;;21.65;35.34;100746.84;7281514;19;153502;-52
2021/12/02 08:18:28;;;;;;;;;;;;;;;21.70;35.39;100749.53;7280159;19;151908;-52
2021/12/02 08:20:55;;;;;;;;;;;;;;;21.80;36.16;100756.03;7282647;19;152797;-52
2021/12/02 08:23:22;;;;;;;;;;;;;;;21.78;35.71;100750.72;7280414;19;153739;-52
2021/12/02 08:26:02;;;;;;;;;;;;;;;21.81;35.47;100754.84;7290308;19;152378;-52
2021/12/02 08:28:30;;;;;;;;;;;;;;;21.77;35.78;100753.84;7279510;19;153380;-52
2021/12/02 08:30:58;;;;;;;;;;;;;;;21.74;36.24;100761.78;7281266;19;152324;-52
2021/12/02 08:33:25;;;;;;;;;;;;;;;21.76;35.59;100766.25;7280794;19;152585;-51
2021/12/02 08:35:52;;;;;;;;;;;;;;;21.73;36.04;100768.56;7278171;19;154207;-52
2021/12/02 08:38:22;;;;;;;;;;;;;;;21.73;36.17;100774.19;7279968;19;151933;-52
2021/12/02 08:40:49;;;;;;;;;;;;;;;21.77;36.02;100777.16;7280709;19;153541;-53
2021/12/02 08:43:17;;;;;;;;;;;;;;;21.77;35.82;100779.97;7279865;19;153372;-52
2021/12/02 08:45:45;;;;;;;;;;;;;;;21.78;35.96;100780.81;7278695;19;151725;-52
2021/12/02 08:48:12;;;;;;;;;;;;;;;21.79;35.92;100776.84;7287093;19;152275;-52
2021/12/02 08:50:39;;;;;;;;;;;;;;;21.77;35.85;100787.59;7276327;19;152115;-52
2021/12/02 08:53:07;;;;;;;;;;;;;;;21.76;35.36;100781.13;7277327;19;151687;-52
2021/12/02 08:55:35;;;;;;;;;;;;;;;21.77;35.49;100779.97;7278862;19;153645;-53
2021/12/02 08:58:04;;;;;;;;;;;;;;;21.74;35.22;100781.47;7280723;19;152150;-52
2021/12/02 09:00:36;;;;;;;;;;;;;;;21.74;35.71;100783.44;7280455;19;153651;-52
2021/12/02 09:03:04;;;;;;;;;;;;;;;21.71;35.33;100784.09;7278460;19;152609;-53
2021/12/02 09:05:31;;;;;;;;;;;;;;;21.73;35.40;100784.59;7277531;19;151927;-53
2021/12/02 09:07:58;;;;;;;;;;;;;;;21.69;35.23;100795.66;7284815;19;153241;-53
2021/12/02 09:10:26;;;;;;;;;;;;;;;21.66;35.06;100785.06;7290826;19;154080;-52
2021/12/02 09:12:53;;;;;;;;;;;;;;;21.63;35.01;100791.31;7284817;19;152808;-52
2021/12/02 09:15:19;;;;;;;;;;;;;;;21.64;35.21;100794.94;7285756;19;153467;-52
2021/12/02 09:17:46;;;;;;;;;;;;;;;21.62;34.88;100800.06;7287003;19;151712;-52
2021/12/02 09:20:15;;;;;;;;;;;;;;;21.63;34.98;100802.56;7286007;19;153374;-53
2021/12/02 09:22:43;;;;;;;;;;;;;;;21.62;35.22;100812.13;7285416;19;154216;-52
2021/12/02 09:25:10;;;;;;;;;;;;;;;21.63;35.13;100824.22;7285870;19;152142;-52
2021/12/02 09:27:37;;;;;;;;;;;;;;;21.66;35.40;100824.44;7287075;19;152497;-52
2021/12/02 09:30:05;;;;;;;;;;;;;;;21.63;35.11;100825.03;7283200;19;154231;-53
2021/12/02 09:32:33;;;;;;;;;;;;;;;21.66;35.16;100832.88;7294104;19;151688;-52
2021/12/02 09:35:00;;;;;;;;;;;;;;;21.65;35.18;100841.59;7284926;19;153239;-52
2021/12/02 09:37:27;;;;;;;;;;;;;;;21.66;35.10;100830.06;7286235;19;151492;-52
2021/12/02 09:39:54;;;;;;;;;;;;;;;21.63;35.08;100836.28;7286364;19;153353;-53
2021/12/02 09:42:21;;;;;;;;;;;;;;;21.63;34.98;100841.91;7283817;19;153433;-52
2021/12/02 09:44:59;;;;;;;;;;;;;;;21.61;34.58;100841.41;7286414;19;151983;-52
2021/12/02 09:47:31;;;;;;;;;;;;;;;21.60;34.78;100836.94;7284717;19;153552;-52
2021/12/02 09:50:03;;;;;;;;;;;;;;;21.59;34.37;100832.47;7283830;19;153883;-52
2021/12/02 09:52:35;;;;;;;;;;;;;;;21.61;34.71;100832.97;7290683;19;151871;-52
2021/12/02 09:55:21;;;;;;;;;;;;;;;21.60;34.35;100831.31;7284226;19;154171;-52
2021/12/02 09:57:54;;;;;;;;;;;;;;;21.56;34.51;100833.09;7285512;19;152335;-53
2021/12/02 10:00:26;;;;;;;;;;;;;;;21.52;34.19;100829.28;7285702;19;153499;-52
2021/12/02 10:02:56;;;;;;;;;;;;;;;21.52;34.38;100829.28;7284467;19;154028;-52
2021/12/02 10:05:30;;;;;;;;;;;;;;;21.48;33.95;100836.69;7285098;19;151976;-52
2021/12/02 10:08:02;;;;;;;;;;;;;;;21.46;33.97;100840.94;7284993;19;152490;-52
2021/12/02 10:10:41;;;;;;;;;;;;;;;21.43;34.38;100842.41;7280625;19;154654;-52
2021/12/02 10:16:05;;;;;;;;;;;;;;;21.35;33.94;100843.16;7292366;19;152928;-52
2021/12/02 10:18:37;;;;;;;;;;;;;;;21.32;34.10;100840.97;7282310;19;151797;-52
2021/12/02 10:21:22;;;;;;;;;;;;;;;21.29;33.82;100850.06;7282799;19;152624;-52
2021/12/02 10:23:49;;;;;;;;;;;;;;;21.24;34.26;100841.75;7283405;19;153898;-52
2021/12/02 10:26:18;;;;;;;;;;;;;;;21.21;34.00;100840.38;7284991;19;151543;-52
2021/12/02 10:28:47;;;;;;;;;;;;;;;21.16;33.94;100842.50;7284405;19;152735;-52
2021/12/02 10:31:22;;;;;;;;;;;;;;;21.15;33.99;100847.28;7279237;19;154155;-52
2021/12/02 10:33:52;;;;;;;;;;;;;;;21.12;34.28;100847.06;7284470;19;152399;-52
2021/12/02 10:36:23;;;;;;;;;;;;;;;21.08;33.87;100846.00;7285758;19;153297;-52
2021/12/02 10:38:50;;;;;;;;;;;;;;;21.04;34.31;100851.41;7290144;19;154927;-52
2021/12/02 10:41:24;;;;;;;;;;;;;;;21.02;34.07;100845.28;7284449;19;153591;-52
2021/12/02 10:44:14;;;;;;;;;;;;;;;20.99;34.21;100854.31;7283022;19;152665;-52
2021/12/02 10:47:02;;;;;;;;;;;;;;;20.94;34.43;100854.44;7284635;19;151726;-52
2021/12/02 10:49:47;;;;;;;;;;;;;;;20.92;33.98;100855.91;7284870;19;152800;-52
2021/12/02 10:52:21;;;;;;;;;;;;;;;20.88;34.08;100852.06;7282832;19;154973;-52
2021/12/02 10:54:51;;;;;;;;;;;;;;;20.85;34.43;100847.88;7283466;19;152191;-51
2021/12/02 10:57:19;;;;;;;;;;;;;;;20.79;34.50;100844.38;7284597;19;152575;-51
2021/12/02 10:59:48;;;;;;;;;;;;;;;20.78;34.39;100842.72;7282531;19;153751;-51
2021/12/02 11:02:23;;;;;;;;;;;;;;;20.74;34.54;100841.66;7291387;19;152272;-51
2021/12/02 11:04:56;;;;;;;;;;;;;;;20.70;34.26;100849.06;7282749;19;153611;-52
2021/12/02 11:07:30;;;;;;;;;;;;;;;20.67;34.60;100846.84;7283743;19;151688;-52
2021/12/02 11:10:01;;;;;;;;;;;;;;;20.64;34.58;100850.28;7280543;19;153653;-52
2021/12/02 11:12:29;;;;;;;;;;;;;;;20.62;34.27;100835.75;7278095;19;154032;-52
2021/12/02 11:14:59;;;;;;;;;;;;;;;20.58;34.33;100843.09;7282985;19;152373;-52
2021/12/02 11:17:29;;;;;;;;;;;;;;;20.55;34.26;100845.72;7283113;19;153362;-52
2021/12/02 11:19:58;;;;;;;;;;;;;;;20.51;34.68;100848.31;7282520;19;154172;-52
2021/12/02 11:22:27;;;;;;;;;;;;;;;20.51;34.74;100858.72;7283735;19;152217;-52
2021/12/02 11:24:54;;;;;;;;;;;;;;;20.49;34.50;100863.81;7289214;19;153890;-52
2021/12/02 11:27:23;;;;;;;;;;;;;;;20.46;34.78;100867.22;7282334;19;152020;-53
2021/12/02 11:29:56;;;;;;;;;;;;;;;20.41;34.39;100868.16;7281638;19;153165;-52
2021/12/02 11:32:24;;;;;;;;;;;;;;;20.39;34.75;100870.44;7281793;19;155048;-53
2021/12/02 11:35:00;;;;;;;;;;;;;;;20.34;34.80;100876.16;7282368;19;151617;-52
2021/12/02 11:37:27;;;;;;;;;;;;;;;20.30;34.80;100875.13;7283420;19;152567;-52
2021/12/02 11:39:55;;;;;;;;;;;;;;;20.30;34.94;100880.72;7281852;19;153373;-51
2021/12/02 11:42:22;;;;;;;;;;;;;;;20.23;34.80;100885.84;7282357;19;152158;-51
2021/12/02 11:44:49;;;;;;;;;;;;;;;20.20;34.81;100886.47;7282491;19;152539;-52
2021/12/02 11:47:18;;;;;;;;;;;;;;;20.16;35.21;100883.47;7283706;19;153949;-52
2021/12/02 11:49:46;;;;;;;;;;;;;;;20.14;35.28;100882.94;7283042;19;153550;-52
2021/12/02 11:52:13;;;;;;;;;;;;;;;20.09;35.47;100891.44;7280504;19;152556;-51
2021/12/02 11:54:40;;;;;;;;;;;;;;;20.06;35.18;100892.06;7282360;19;151913;-51
2021/12/02 11:57:08;;;;;;;;;;;;;;;20.03;35.52;100883.44;7281560;19;153386;-51
2021/12/02 11:59:41;;;;;;;;;;;;;;;20.02;35.31;100887.38;7281515;19;153204;-51
2021/12/02 12:02:16;;;;;;;;;;;;;;;19.99;35.43;100897.19;7279566;19;151911;-52
2021/12/02 12:04:54;;;;;;;;;;;;;;;19.92;35.56;100896.78;7281850;19;153385;-52
2021/12/02 12:07:22;;;;;;;;;;;;;;;19.90;35.52;100893.44;7288705;19;153827;-52
2021/12/02 12:10:09;;;;;;;;;;;;;;;19.86;35.37;100903.59;7281793;19;152703;-52
2021/12/02 12:12:37;;;;;;;;;;;;;;;19.86;35.52;100896.00;7277468;19;153572;-52
2021/12/02 12:15:04;;;;;;;;;;;;;;;19.83;35.58;100898.59;7278369;19;152023;-51
2021/12/02 12:17:38;;;;;;;;;;;;;;;19.80;35.53;100905.66;7281390;19;152649;-52
2021/12/02 12:20:05;;;;;;;;;;;;;;;19.82;35.45;100914.59;7278943;19;153647;-52
2021/12/02 12:22:35;;;;;;;;;;;;;;;19.76;35.74;100912.19;7281993;19;151722;-52
2021/12/02 12:25:06;;;;;;;;;;;;;;;19.76;35.51;100915.78;7280885;19;152644;-52
2021/12/02 12:27:35;;;;;;;;;;;;;;;19.77;35.38;100911.88;7280263;19;153369;-52
2021/12/02 12:30:18;;;;;;;;;;;;;;;19.73;35.33;100909.97;7287898;19;151738;-52
2021/12/02 12:35:38;;;;;;;;;;;;;;;19.71;35.69;100915.06;7280245;19;152071;-52
2021/12/02 12:38:18;;;;;;;;;;;;;;;19.67;35.22;100917.63;7278799;19;152651;-52
2021/12/02 12:40:48;;;;;;;;;;;;;;;19.66;35.46;100918.78;7277921;19;153348;-53
2021/12/02 12:43:17;;;;;;;;;;;;;;;19.65;35.70;100921.88;7287580;19;152293;-52
2021/12/02 12:45:45;;;;;;;;;;;;;;;19.61;35.62;100915.22;7287334;19;153707;-52
2021/12/02 12:48:19;;;;;;;;;;;;;;;19.61;35.33;100904.00;7285297;19;154183;-52
2021/12/02 12:50:47;;;;;;;;;;;;;;;19.58;35.43;100911.03;7286543;19;151795;-52
2021/12/02 12:53:16;;;;;;;;;;;;;;;19.60;35.53;100911.56;7293660;19;153511;-52
2021/12/02 12:55:49;;;;;;;;;;;;;;;19.57;35.24;100909.38;7286879;19;151810;-52
2021/12/02 12:58:18;;;;;;;;;;;;;;;19.53;35.25;100913.94;7285401;19;154988;-52